createdAt,value
2018-11-28T00:00:55.462Z,61.67
2018-11-28T00:05:59.434Z,62.00
2018-11-28T00:14:36.736Z,62.19
2018-11-28T00:19:41.558Z,61.90
2018-11-28T00:24:50.166Z,61.61
2018-11-28T00:29:59.712Z,61.86
2018-11-28T00:35:06.246Z,61.83
2018-11-28T00:40:11.246Z,62.15
2018-11-28T00:45:17.180Z,62.23
2018-11-28T00:50:22.882Z,62.15
2018-11-28T00:55:26.580Z,62.42
2018-11-28T01:00:30.197Z,62.46
2018-11-28T01:05:33.748Z,62.25
2018-11-28T01:10:37.349Z,62.80
2018-11-28T01:15:40.906Z,62.48
2018-11-28T01:20:44.362Z,62.79
2018-11-28T01:25:47.852Z,62.91
2018-11-28T01:30:58.076Z,63.15
2018-11-28T01:36:01.699Z,63.05
2018-11-28T01:41:05.549Z,63.49
2018-11-28T01:46:09.369Z,63.80
2018-11-28T01:51:13.008Z,63.75
2018-11-28T01:56:16.658Z,64.20
2018-11-28T02:01:20.033Z,64.10
2018-11-28T02:06:23.471Z,64.00
2018-11-28T02:11:26.905Z,64.53
2018-11-28T02:16:30.282Z,64.36
2018-11-28T02:21:33.732Z,64.03
2018-11-28T02:26:43.543Z,64.41
2018-11-28T02:31:47.150Z,64.74
2018-11-28T02:36:50.761Z,64.54
2018-11-28T02:41:54.422Z,64.82
2018-11-28T02:46:58.419Z,65.17
2018-11-28T02:52:02.036Z,65.08
2018-11-28T02:57:05.655Z,65.15
2018-11-28T03:02:09.246Z,65.16
2018-11-28T03:07:13.270Z,64.88
2018-11-28T03:12:23.824Z,65.43
2018-11-28T03:17:27.689Z,65.07
2018-11-28T03:22:31.481Z,65.39
2018-11-28T03:27:34.999Z,65.30
2018-11-28T03:32:38.527Z,65.64
2018-11-28T03:37:42.063Z,65.41
2018-11-28T03:42:45.673Z,65.48
2018-11-28T03:47:49.422Z,65.54
2018-11-28T03:52:53.250Z,65.49
2018-11-28T03:57:57.274Z,65.58
2018-11-28T04:03:01.079Z,65.99
2018-11-28T04:08:04.843Z,65.73
2018-11-28T04:13:08.526Z,65.99
2018-11-28T04:18:12.134Z,66.13
2018-11-28T04:23:15.688Z,65.99
2018-11-28T04:28:19.380Z,65.73
2018-11-28T04:33:22.859Z,65.98
2018-11-28T04:38:26.454Z,65.44
2018-11-28T04:43:30.054Z,65.50
2018-11-28T04:48:33.475Z,65.08
2018-11-28T04:53:36.911Z,64.52
2018-11-28T04:58:40.367Z,65.32
2018-11-28T05:03:43.820Z,65.01
2018-11-28T05:08:47.230Z,65.15
2018-11-28T05:13:50.694Z,65.41
2018-11-28T05:18:54.136Z,65.23
2018-11-28T05:23:57.744Z,64.95
2018-11-28T05:29:01.159Z,65.05
2018-11-28T05:34:04.699Z,65.18
2018-11-28T05:39:08.502Z,65.35
2018-11-28T05:44:11.985Z,65.13
2018-11-28T05:49:15.563Z,64.92
2018-11-28T05:54:20.248Z,65.03
2018-11-28T05:59:27.330Z,64.75
2018-11-28T06:04:25.950Z,64.91
2018-11-28T06:09:29.380Z,65.29
2018-11-28T06:14:32.823Z,64.89
2018-11-28T06:19:36.283Z,64.99
2018-11-28T06:24:39.710Z,65.10
2018-11-28T06:29:43.452Z,64.97
2018-11-28T06:34:47.202Z,65.09
2018-11-28T06:39:50.934Z,65.28
2018-11-28T06:44:54.567Z,64.84
2018-11-28T06:49:58.233Z,65.10
2018-11-28T06:55:01.603Z,65.15
2018-11-28T07:00:10.600Z,65.18
2018-11-28T07:05:14.028Z,65.19
2018-11-28T07:10:18.473Z,65.60
2018-11-28T07:15:23.192Z,65.29
2018-11-28T07:20:26.612Z,65.45
2018-11-28T07:25:29.997Z,65.51
2018-11-28T07:30:37.703Z,65.58
2018-11-28T07:35:36.897Z,65.35
2018-11-28T07:40:40.617Z,65.46
2018-11-28T07:45:47.802Z,65.50
2018-11-28T07:50:51.120Z,65.83
2018-11-28T07:55:54.466Z,42.37
2018-11-28T08:00:57.884Z,44.20
2018-11-28T08:06:01.243Z,45.05
2018-11-28T08:11:04.625Z,44.21
2018-11-28T08:16:07.995Z,45.47
2018-11-28T08:21:11.318Z,44.33
2018-11-28T08:26:14.654Z,48.01
2018-11-28T08:31:18.043Z,47.62
2018-11-28T08:36:21.407Z,49.85
2018-11-28T08:41:24.855Z,49.12
2018-11-28T08:46:28.245Z,49.76
2018-11-28T08:51:31.629Z,51.00
2018-11-28T08:56:35.013Z,51.79
2018-11-28T09:01:38.561Z,52.24
2018-11-28T09:06:41.979Z,50.25
2018-11-28T09:11:45.441Z,52.19
2018-11-28T09:16:48.858Z,51.73
2018-11-28T09:21:52.216Z,51.61
2018-11-28T09:26:55.621Z,52.13
2018-11-28T09:31:59.007Z,53.20
2018-11-28T09:37:02.442Z,52.82
2018-11-28T09:42:06.091Z,54.51
2018-11-28T09:47:09.537Z,54.45
2018-11-28T09:52:12.991Z,55.61
2018-11-28T09:57:16.453Z,56.11
2018-11-28T10:02:20.192Z,56.71
2018-11-28T10:07:23.727Z,57.19
2018-11-28T10:12:27.164Z,57.43
2018-11-28T10:17:31.375Z,58.46
2018-11-28T10:22:35.252Z,58.12
2018-11-28T10:27:40.812Z,57.01
2018-11-28T10:32:44.408Z,57.42
2018-11-28T10:37:50.481Z,57.40
2018-11-28T10:42:59.356Z,57.99
2018-11-28T10:48:03.575Z,58.03
2018-11-28T10:53:07.534Z,58.59
2018-11-28T10:58:11.815Z,58.77
2018-11-28T11:03:24.868Z,59.21
2018-11-28T11:08:32.361Z,58.86
2018-11-28T11:13:43.075Z,59.13
2018-11-28T11:18:46.946Z,59.44
2018-11-28T11:23:50.342Z,59.08
2018-11-28T11:28:53.803Z,59.30
2018-11-28T11:33:57.240Z,59.25
2018-11-28T11:39:00.624Z,58.55
2018-11-28T11:44:04.145Z,58.80
2018-11-28T11:49:07.598Z,59.09
2018-11-28T11:54:11.071Z,59.02
2018-11-28T11:59:14.565Z,59.14
2018-11-28T12:04:18.070Z,59.04
2018-11-28T12:09:21.489Z,59.87
2018-11-28T12:14:24.939Z,59.65
2018-11-28T12:19:30.494Z,60.56
2018-11-28T12:24:34.070Z,60.22
2018-11-28T12:29:37.534Z,59.59
2018-11-28T12:34:41.027Z,59.46
2018-11-28T12:39:44.670Z,59.17
2018-11-28T12:44:48.006Z,58.18
2018-11-28T12:49:51.334Z,59.26
2018-11-28T12:54:54.738Z,58.67
2018-11-28T12:59:58.055Z,60.09
2018-11-28T13:05:01.414Z,60.37
2018-11-28T13:10:13.411Z,59.92
2018-11-28T13:15:17.752Z,60.45
2018-11-28T13:20:21.379Z,60.82
2018-11-28T13:25:25.812Z,61.01
2018-11-28T13:30:29.162Z,61.40
2018-11-28T13:35:32.573Z,62.61
2018-11-28T13:40:35.937Z,62.69
2018-11-28T13:45:47.582Z,62.25
2018-11-28T13:50:51.990Z,62.17
2018-11-28T13:56:56.930Z,61.24
2018-11-28T14:01:00.077Z,60.86
2018-11-28T14:06:03.426Z,61.45
2018-11-28T14:11:06.950Z,61.27
2018-11-28T14:16:10.261Z,61.23
2018-11-28T14:21:13.655Z,61.40
2018-11-28T14:26:17.115Z,62.13
2018-11-28T14:31:20.496Z,62.12
2018-11-28T14:36:23.867Z,62.04
2018-11-28T14:41:27.236Z,62.54
2018-11-28T14:46:30.709Z,62.62
2018-11-28T14:51:34.062Z,62.42
2018-11-28T14:56:38.496Z,62.04
2018-11-28T15:01:41.882Z,61.86
2018-11-28T15:06:50.207Z,61.43
2018-11-28T15:11:53.585Z,61.38
2018-11-28T15:16:56.987Z,61.33
2018-11-28T15:22:00.357Z,61.64
2018-11-28T15:27:03.806Z,61.64
2018-11-28T15:32:07.672Z,61.77
2018-11-28T15:37:11.022Z,62.14
2018-11-28T15:42:14.371Z,62.33
2018-11-28T15:47:17.729Z,62.78
2018-11-28T15:52:21.103Z,62.36
2018-11-28T15:57:24.469Z,62.95
2018-11-28T16:02:27.847Z,62.65
2018-11-28T16:07:31.869Z,62.40
2018-11-28T16:12:35.254Z,62.34
2018-11-28T16:17:38.618Z,62.37
2018-11-28T16:22:41.984Z,62.88
2018-11-28T16:27:45.374Z,63.06
2018-11-28T16:32:48.771Z,63.09
2018-11-28T16:37:52.135Z,63.06
2018-11-28T16:42:55.542Z,63.50
2018-11-28T16:47:58.968Z,63.68
2018-11-28T16:53:02.372Z,63.65
2018-11-28T16:58:06.698Z,63.61
2018-11-28T17:03:10.053Z,63.99
2018-11-28T17:08:13.464Z,61.25
2018-11-28T17:13:16.862Z,60.28
2018-11-28T17:18:20.369Z,59.89
2018-11-28T17:23:23.721Z,59.67
2018-11-28T17:28:27.122Z,59.98
2018-11-28T17:33:30.503Z,59.36
2018-11-28T17:38:33.913Z,59.89
2018-11-28T17:43:37.462Z,59.08
2018-11-28T17:48:40.824Z,59.39
2018-11-28T17:53:44.217Z,59.91
2018-11-28T17:58:47.572Z,59.51
2018-11-28T18:03:51.390Z,59.53
2018-11-28T18:08:54.874Z,59.90
2018-11-28T18:13:58.386Z,59.29
2018-11-28T18:19:01.871Z,59.37
2018-11-28T18:24:05.594Z,59.35
2018-11-28T18:29:09.095Z,59.64
2018-11-28T18:34:12.514Z,60.09
2018-11-28T18:39:15.925Z,59.96
2018-11-28T18:44:19.288Z,59.78
2018-11-28T18:49:22.690Z,59.46
2018-11-28T18:54:26.117Z,59.08
2018-11-28T18:59:29.552Z,58.67
2018-11-28T19:04:32.997Z,58.81
2018-11-28T19:09:41.819Z,59.34
2018-11-28T19:14:45.481Z,58.85
2018-11-28T19:19:48.636Z,59.15
2018-11-28T19:24:52.038Z,59.30
2018-11-28T19:29:55.538Z,59.08
2018-11-28T19:34:58.974Z,59.40
2018-11-28T19:40:02.503Z,59.10
2018-11-28T19:45:06.071Z,59.54
2018-11-28T19:50:12.382Z,59.24
2018-11-28T19:55:15.831Z,59.02
2018-11-28T20:00:19.842Z,59.35
2018-11-28T20:05:23.884Z,58.96
2018-11-28T20:10:27.224Z,59.33
2018-11-28T20:15:31.296Z,59.93
2018-11-28T20:20:35.497Z,60.04
2018-11-28T20:25:39.285Z,60.40
2018-11-28T20:30:44.064Z,60.48
2018-11-28T20:35:48.668Z,60.96
2018-11-28T20:40:52.010Z,60.63
2018-11-28T20:45:55.420Z,60.67
2018-11-28T20:50:58.848Z,61.14
2018-11-28T20:56:02.967Z,60.80
2018-11-28T21:01:06.703Z,61.39
2018-11-28T21:06:10.117Z,61.43
2018-11-28T21:11:13.502Z,61.45
2018-11-28T21:16:16.889Z,60.98
2018-11-28T21:21:20.430Z,61.71
2018-11-28T21:26:24.015Z,61.50
2018-11-28T21:31:27.694Z,61.90
2018-11-28T21:36:31.134Z,61.81
2018-11-28T21:41:34.607Z,62.00
2018-11-28T21:46:37.978Z,61.85
2018-11-28T21:51:41.416Z,62.10
2018-11-28T21:56:44.817Z,62.45
2018-11-28T22:01:48.418Z,62.35
2018-11-28T22:06:51.735Z,61.99
2018-11-28T22:11:55.473Z,62.60
2018-11-28T22:16:59.053Z,62.52
2018-11-28T22:22:02.695Z,62.66
2018-11-28T22:27:07.421Z,62.67
2018-11-28T22:32:11.492Z,62.91
2018-11-28T22:37:15.438Z,62.85
2018-11-28T22:42:19.491Z,62.50
2018-11-28T22:47:23.842Z,62.74
2018-11-28T22:52:28.248Z,62.85
2018-11-28T22:57:31.929Z,62.72
2018-11-28T23:02:48.846Z,62.64
2018-11-28T23:07:52.467Z,62.74
2018-11-28T23:12:56.140Z,63.16
2018-11-28T23:17:59.539Z,63.13
2018-11-28T23:23:03.250Z,63.50
2018-11-28T23:28:07.366Z,63.61
2018-11-28T23:33:15.972Z,63.34
2018-11-28T23:38:14.416Z,63.33
2018-11-28T23:43:18.090Z,63.49
2018-11-28T23:48:21.457Z,63.44
2018-11-28T23:53:25.000Z,63.62
2018-11-28T23:58:28.476Z,63.46
